sensor_id;sensor_type;location;lat;lon;timestamp;P1;durP1;ratioP1;P2;durP2;ratioP2
18806;SDS011;9531;52.030;4.380;2022-08-01T00:01:52;320.80;;;147.95;;
18806;SDS011;9531;52.030;4.380;2022-08-01T00:04:19;340.60;;;151.85;;
18806;SDS011;9531;52.030;4.380;2022-08-01T00:06:47;243.02;;;97.63;;
18806;SDS011;9531;52.030;4.380;2022-08-01T00:09:14;314.30;;;144.63;;
18806;SDS011;9531;52.030;4.380;2022-08-01T00:11:43;236.35;;;107.47;;
18806;SDS011;9531;52.030;4.380;2022-08-01T00:14:10;310.30;;;96.75;;
18806;SDS011;9531;52.030;4.380;2022-08-01T00:16:38;343.85;;;121.53;;
18806;SDS011;9531;52.030;4.380;2022-08-01T00:19:05;376.08;;;148.25;;
18806;SDS011;9531;52.030;4.380;2022-08-01T00:21:32;360.52;;;114.57;;
18806;SDS011;9531;52.030;4.380;2022-08-01T00:24:00;366.35;;;151.95;;
18806;SDS011;9531;52.030;4.380;2022-08-01T00:26:27;416.98;;;179.05;;
18806;SDS011;9531;52.030;4.380;2022-08-01T00:28:56;367.02;;;151.57;;
18806;SDS011;9531;52.030;4.380;2022-08-01T00:31:24;421.58;;;154.25;;
18806;SDS011;9531;52.030;4.380;2022-08-01T00:33:51;271.48;;;126.35;;
18806;SDS011;9531;52.030;4.380;2022-08-01T00:36:18;396.13;;;156.80;;
18806;SDS011;9531;52.030;4.380;2022-08-01T00:38:45;471.50;;;187.65;;
18806;SDS011;9531;52.030;4.380;2022-08-01T00:41:13;397.52;;;202.52;;
18806;SDS011;9531;52.030;4.380;2022-08-01T00:43:40;487.48;;;213.43;;
18806;SDS011;9531;52.030;4.380;2022-08-01T00:46:09;330.35;;;146.43;;
18806;SDS011;9531;52.030;4.380;2022-08-01T00:48:36;432.58;;;159.27;;
18806;SDS011;9531;52.030;4.380;2022-08-01T00:51:03;716.17;;;357.92;;
18806;SDS011;9531;52.030;4.380;2022-08-01T00:53:31;444.77;;;178.40;;
18806;SDS011;9531;52.030;4.380;2022-08-01T00:55:59;454.95;;;193.95;;
18806;SDS011;9531;52.030;4.380;2022-08-01T00:58:26;324.17;;;148.48;;
18806;SDS011;9531;52.030;4.380;2022-08-01T01:00:56;409.60;;;191.02;;
18806;SDS011;9531;52.030;4.380;2022-08-01T01:03:24;379.95;;;133.05;;
18806;SDS011;9531;52.030;4.380;2022-08-01T01:05:54;471.95;;;170.63;;
18806;SDS011;9531;52.030;4.380;2022-08-01T01:08:24;562.80;;;279.80;;
18806;SDS011;9531;52.030;4.380;2022-08-01T01:10:54;290.05;;;135.98;;
18806;SDS011;9531;52.030;4.380;2022-08-01T01:13:23;586.40;;;201.35;;
18806;SDS011;9531;52.030;4.380;2022-08-01T01:15:55;460.77;;;191.75;;
18806;SDS011;9531;52.030;4.380;2022-08-01T01:18:27;355.83;;;168.95;;
18806;SDS011;9531;52.030;4.380;2022-08-01T01:20:58;284.13;;;140.73;;
18806;SDS011;9531;52.030;4.380;2022-08-01T01:23:34;687.40;;;314.30;;
18806;SDS011;9531;52.030;4.380;2022-08-01T01:26:17;502.00;;;229.10;;
18806;SDS011;9531;52.030;4.380;2022-08-01T01:28:56;429.40;;;192.95;;
18806;SDS011;9531;52.030;4.380;2022-08-01T01:31:25;468.98;;;190.32;;
18806;SDS011;9531;52.030;4.380;2022-08-01T01:33:53;561.78;;;316.42;;
18806;SDS011;9531;52.030;4.380;2022-08-01T01:36:21;622.60;;;313.02;;
18806;SDS011;9531;52.030;4.380;2022-08-01T01:38:49;490.85;;;243.55;;
18806;SDS011;9531;52.030;4.380;2022-08-01T01:41:18;739.90;;;346.17;;
18806;SDS011;9531;52.030;4.380;2022-08-01T01:43:45;475.98;;;226.05;;
18806;SDS011;9531;52.030;4.380;2022-08-01T01:46:16;464.52;;;232.27;;
18806;SDS011;9531;52.030;4.380;2022-08-01T01:48:47;514.03;;;209.88;;
18806;SDS011;9531;52.030;4.380;2022-08-01T01:51:14;566.53;;;234.48;;
18806;SDS011;9531;52.030;4.380;2022-08-01T01:53:42;551.78;;;251.52;;
18806;SDS011;9531;52.030;4.380;2022-08-01T01:56:10;561.20;;;244.82;;
18806;SDS011;9531;52.030;4.380;2022-08-01T01:58:38;573.88;;;305.17;;
18806;SDS011;9531;52.030;4.380;2022-08-01T02:01:06;589.72;;;279.58;;
18806;SDS011;9531;52.030;4.380;2022-08-01T02:03:35;559.47;;;269.83;;
18806;SDS011;9531;52.030;4.380;2022-08-01T02:06:03;510.45;;;206.50;;
18806;SDS011;9531;52.030;4.380;2022-08-01T02:08:31;634.47;;;277.52;;
18806;SDS011;9531;52.030;4.380;2022-08-01T02:10:59;415.55;;;175.18;;
18806;SDS011;9531;52.030;4.380;2022-08-01T02:13:47;515.17;;;263.48;;
18806;SDS011;9531;52.030;4.380;2022-08-01T02:16:15;687.85;;;306.75;;
18806;SDS011;9531;52.030;4.380;2022-08-01T02:18:45;689.38;;;268.98;;
18806;SDS011;9531;52.030;4.380;2022-08-01T02:21:13;553.80;;;275.55;;
18806;SDS011;9531;52.030;4.380;2022-08-01T02:23:43;448.70;;;228.63;;
18806;SDS011;9531;52.030;4.380;2022-08-01T02:26:13;469.25;;;239.57;;
18806;SDS011;9531;52.030;4.380;2022-08-01T02:28:42;569.97;;;333.60;;
18806;SDS011;9531;52.030;4.380;2022-08-01T02:31:11;475.27;;;242.43;;
18806;SDS011;9531;52.030;4.380;2022-08-01T02:33:40;734.97;;;323.15;;
18806;SDS011;9531;52.030;4.380;2022-08-01T02:36:10;655.15;;;317.33;;
18806;SDS011;9531;52.030;4.380;2022-08-01T02:38:39;575.88;;;312.67;;
18806;SDS011;9531;52.030;4.380;2022-08-01T02:41:08;748.38;;;330.15;;
18806;SDS011;9531;52.030;4.380;2022-08-01T02:43:36;590.35;;;289.02;;
18806;SDS011;9531;52.030;4.380;2022-08-01T02:46:04;600.75;;;249.02;;
18806;SDS011;9531;52.030;4.380;2022-08-01T02:48:33;675.38;;;313.73;;
18806;SDS011;9531;52.030;4.380;2022-08-01T02:51:01;535.92;;;236.73;;
18806;SDS011;9531;52.030;4.380;2022-08-01T02:53:31;576.33;;;280.35;;
18806;SDS011;9531;52.030;4.380;2022-08-01T02:56:02;551.42;;;285.85;;
18806;SDS011;9531;52.030;4.380;2022-08-01T02:58:30;573.47;;;299.85;;
18806;SDS011;9531;52.030;4.380;2022-08-01T03:00:58;515.70;;;229.35;;
18806;SDS011;9531;52.030;4.380;2022-08-01T03:03:26;658.72;;;347.40;;
18806;SDS011;9531;52.030;4.380;2022-08-01T03:05:53;534.15;;;263.83;;
18806;SDS011;9531;52.030;4.380;2022-08-01T03:08:21;593.25;;;312.35;;
18806;SDS011;9531;52.030;4.380;2022-08-01T03:10:50;551.40;;;253.10;;
18806;SDS011;9531;52.030;4.380;2022-08-01T03:13:19;501.42;;;300.08;;
18806;SDS011;9531;52.030;4.380;2022-08-01T03:15:47;674.70;;;314.42;;
18806;SDS011;9531;52.030;4.380;2022-08-01T03:18:15;438.85;;;177.38;;
18806;SDS011;9531;52.030;4.380;2022-08-01T03:20:42;611.05;;;297.73;;
18806;SDS011;9531;52.030;4.380;2022-08-01T03:23:11;557.38;;;272.95;;
18806;SDS011;9531;52.030;4.380;2022-08-01T03:25:39;599.42;;;320.73;;
18806;SDS011;9531;52.030;4.380;2022-08-01T03:28:08;710.83;;;320.63;;
18806;SDS011;9531;52.030;4.380;2022-08-01T03:30:38;614.38;;;311.48;;
18806;SDS011;9531;52.030;4.380;2022-08-01T03:33:06;650.55;;;291.73;;
18806;SDS011;9531;52.030;4.380;2022-08-01T03:35:34;623.95;;;293.02;;
18806;SDS011;9531;52.030;4.380;2022-08-01T03:38:03;661.28;;;305.38;;
18806;SDS011;9531;52.030;4.380;2022-08-01T03:40:35;558.65;;;270.67;;
18806;SDS011;9531;52.030;4.380;2022-08-01T03:43:05;608.95;;;305.98;;
18806;SDS011;9531;52.030;4.380;2022-08-01T03:45:35;702.17;;;307.23;;
18806;SDS011;9531;52.030;4.380;2022-08-01T03:48:05;624.28;;;331.23;;
18806;SDS011;9531;52.030;4.380;2022-08-01T03:50:33;774.55;;;343.17;;
18806;SDS011;9531;52.030;4.380;2022-08-01T03:53:01;679.22;;;312.23;;
18806;SDS011;9531;52.030;4.380;2022-08-01T03:55:29;664.22;;;318.02;;
18806;SDS011;9531;52.030;4.380;2022-08-01T03:57:57;788.45;;;369.50;;
18806;SDS011;9531;52.030;4.380;2022-08-01T04:00:24;631.75;;;304.90;;
18806;SDS011;9531;52.030;4.380;2022-08-01T04:02:53;748.10;;;373.98;;
18806;SDS011;9531;52.030;4.380;2022-08-01T04:05:20;846.72;;;392.92;;
18806;SDS011;9531;52.030;4.380;2022-08-01T04:07:49;804.47;;;389.45;;
18806;SDS011;9531;52.030;4.380;2022-08-01T04:10:20;880.42;;;463.52;;
18806;SDS011;9531;52.030;4.380;2022-08-01T04:12:48;855.40;;;404.60;;
18806;SDS011;9531;52.030;4.380;2022-08-01T04:15:15;775.47;;;360.90;;
18806;SDS011;9531;52.030;4.380;2022-08-01T04:17:44;755.38;;;344.05;;
18806;SDS011;9531;52.030;4.380;2022-08-01T04:20:12;660.15;;;364.35;;
18806;SDS011;9531;52.030;4.380;2022-08-01T04:22:40;833.92;;;427.38;;
18806;SDS011;9531;52.030;4.380;2022-08-01T04:25:10;721.20;;;383.45;;
18806;SDS011;9531;52.030;4.380;2022-08-01T04:27:38;638.67;;;347.38;;
18806;SDS011;9531;52.030;4.380;2022-08-01T04:30:08;753.58;;;434.52;;
18806;SDS011;9531;52.030;4.380;2022-08-01T04:32:37;838.38;;;443.15;;
18806;SDS011;9531;52.030;4.380;2022-08-01T04:35:06;716.50;;;402.92;;
18806;SDS011;9531;52.030;4.380;2022-08-01T04:37:36;764.13;;;392.92;;
18806;SDS011;9531;52.030;4.380;2022-08-01T04:40:06;861.90;;;412.25;;
18806;SDS011;9531;52.030;4.380;2022-08-01T04:42:33;823.17;;;400.67;;
18806;SDS011;9531;52.030;4.380;2022-08-01T04:45:01;768.53;;;411.90;;
18806;SDS011;9531;52.030;4.380;2022-08-01T04:47:28;828.28;;;387.30;;
18806;SDS011;9531;52.030;4.380;2022-08-01T04:49:56;946.25;;;392.98;;
18806;SDS011;9531;52.030;4.380;2022-08-01T04:52:26;723.30;;;348.63;;
18806;SDS011;9531;52.030;4.380;2022-08-01T04:55:00;631.63;;;386.45;;
18806;SDS011;9531;52.030;4.380;2022-08-01T04:57:28;805.90;;;388.60;;
18806;SDS011;9531;52.030;4.380;2022-08-01T04:59:55;722.10;;;423.00;;
18806;SDS011;9531;52.030;4.380;2022-08-01T05:02:23;634.47;;;317.33;;
18806;SDS011;9531;52.030;4.380;2022-08-01T05:04:53;772.83;;;395.23;;
18806;SDS011;9531;52.030;4.380;2022-08-01T05:07:21;708.90;;;368.40;;
18806;SDS011;9531;52.030;4.380;2022-08-01T05:09:48;730.15;;;300.55;;
18806;SDS011;9531;52.030;4.380;2022-08-01T05:12:17;952.72;;;547.00;;
18806;SDS011;9531;52.030;4.380;2022-08-01T05:14:44;841.15;;;433.23;;
18806;SDS011;9531;52.030;4.380;2022-08-01T05:17:12;621.28;;;313.27;;
18806;SDS011;9531;52.030;4.380;2022-08-01T05:19:39;647.28;;;368.33;;
18806;SDS011;9531;52.030;4.380;2022-08-01T05:22:08;864.30;;;427.50;;
18806;SDS011;9531;52.030;4.380;2022-08-01T05:24:36;549.45;;;293.08;;
18806;SDS011;9531;52.030;4.380;2022-08-01T05:27:05;648.97;;;291.73;;
18806;SDS011;9531;52.030;4.380;2022-08-01T05:29:34;731.58;;;320.23;;
18806;SDS011;9531;52.030;4.380;2022-08-01T05:32:02;744.90;;;303.38;;
18806;SDS011;9531;52.030;4.380;2022-08-01T05:34:29;692.33;;;313.45;;
18806;SDS011;9531;52.030;4.380;2022-08-01T05:36:56;639.53;;;304.83;;
18806;SDS011;9531;52.030;4.380;2022-08-01T05:39:24;664.30;;;373.92;;
18806;SDS011;9531;52.030;4.380;2022-08-01T05:41:51;749.28;;;414.15;;
18806;SDS011;9531;52.030;4.380;2022-08-01T05:44:19;770.60;;;404.88;;
18806;SDS011;9531;52.030;4.380;2022-08-01T05:46:47;756.75;;;424.27;;
18806;SDS011;9531;52.030;4.380;2022-08-01T05:49:15;738.72;;;395.30;;
18806;SDS011;9531;52.030;4.380;2022-08-01T05:51:42;717.00;;;313.70;;
18806;SDS011;9531;52.030;4.380;2022-08-01T05:54:09;863.53;;;480.65;;
18806;SDS011;9531;52.030;4.380;2022-08-01T05:56:37;612.40;;;313.52;;
18806;SDS011;9531;52.030;4.380;2022-08-01T05:59:04;608.40;;;364.98;;
18806;SDS011;9531;52.030;4.380;2022-08-01T06:01:31;650.53;;;302.42;;
18806;SDS011;9531;52.030;4.380;2022-08-01T06:04:00;506.98;;;248.75;;
18806;SDS011;9531;52.030;4.380;2022-08-01T06:06:27;627.72;;;268.75;;
18806;SDS011;9531;52.030;4.380;2022-08-01T06:08:56;645.50;;;345.45;;
18806;SDS011;9531;52.030;4.380;2022-08-01T06:11:23;772.80;;;341.80;;
18806;SDS011;9531;52.030;4.380;2022-08-01T06:13:50;551.42;;;268.35;;
18806;SDS011;9531;52.030;4.380;2022-08-01T06:16:18;644.10;;;292.02;;
18806;SDS011;9531;52.030;4.380;2022-08-01T06:18:45;614.80;;;275.48;;
18806;SDS011;9531;52.030;4.380;2022-08-01T06:21:14;583.03;;;319.60;;
18806;SDS011;9531;52.030;4.380;2022-08-01T06:23:41;724.50;;;392.00;;
18806;SDS011;9531;52.030;4.380;2022-08-01T06:26:09;661.65;;;335.25;;
18806;SDS011;9531;52.030;4.380;2022-08-01T06:28:38;603.15;;;280.92;;
18806;SDS011;9531;52.030;4.380;2022-08-01T06:31:05;579.42;;;286.20;;
18806;SDS011;9531;52.030;4.380;2022-08-01T06:33:34;535.22;;;259.25;;
18806;SDS011;9531;52.030;4.380;2022-08-01T06:36:02;561.15;;;284.35;;
18806;SDS011;9531;52.030;4.380;2022-08-01T06:38:31;589.22;;;287.20;;
18806;SDS011;9531;52.030;4.380;2022-08-01T06:40:58;614.45;;;288.40;;
18806;SDS011;9531;52.030;4.380;2022-08-01T06:43:25;802.05;;;471.17;;
18806;SDS011;9531;52.030;4.380;2022-08-01T06:45:52;629.60;;;299.70;;
18806;SDS011;9531;52.030;4.380;2022-08-01T06:48:20;586.03;;;289.42;;
18806;SDS011;9531;52.030;4.380;2022-08-01T06:50:47;651.58;;;337.25;;
18806;SDS011;9531;52.030;4.380;2022-08-01T06:53:34;564.75;;;316.80;;
18806;SDS011;9531;52.030;4.380;2022-08-01T06:56:01;586.67;;;260.85;;
18806;SDS011;9531;52.030;4.380;2022-08-01T06:58:29;459.63;;;229.85;;
18806;SDS011;9531;52.030;4.380;2022-08-01T07:00:56;566.53;;;265.67;;
18806;SDS011;9531;52.030;4.380;2022-08-01T07:03:23;597.65;;;280.77;;
18806;SDS011;9531;52.030;4.380;2022-08-01T07:05:51;496.88;;;249.52;;
18806;SDS011;9531;52.030;4.380;2022-08-01T07:08:18;409.17;;;221.40;;
18806;SDS011;9531;52.030;4.380;2022-08-01T07:10:47;532.88;;;265.20;;
18806;SDS011;9531;52.030;4.380;2022-08-01T07:13:14;553.65;;;278.38;;
18806;SDS011;9531;52.030;4.380;2022-08-01T07:15:45;507.92;;;267.10;;
18806;SDS011;9531;52.030;4.380;2022-08-01T07:18:13;419.30;;;206.60;;
18806;SDS011;9531;52.030;4.380;2022-08-01T07:20:40;344.33;;;172.35;;
18806;SDS011;9531;52.030;4.380;2022-08-01T07:23:08;548.13;;;255.80;;
18806;SDS011;9531;52.030;4.380;2022-08-01T07:25:35;726.50;;;374.13;;
18806;SDS011;9531;52.030;4.380;2022-08-01T07:28:04;537.75;;;197.90;;
18806;SDS011;9531;52.030;4.380;2022-08-01T07:30:31;408.20;;;185.25;;
18806;SDS011;9531;52.030;4.380;2022-08-01T07:32:58;551.08;;;233.50;;
18806;SDS011;9531;52.030;4.380;2022-08-01T07:35:26;532.35;;;258.05;;
18806;SDS011;9531;52.030;4.380;2022-08-01T07:37:53;610.50;;;261.40;;
18806;SDS011;9531;52.030;4.380;2022-08-01T07:40:21;518.08;;;227.32;;
18806;SDS011;9531;52.030;4.380;2022-08-01T07:42:49;526.80;;;244.50;;
18806;SDS011;9531;52.030;4.380;2022-08-01T07:45:18;441.73;;;189.15;;
18806;SDS011;9531;52.030;4.380;2022-08-01T07:47:48;494.95;;;164.38;;
18806;SDS011;9531;52.030;4.380;2022-08-01T07:50:16;444.38;;;174.02;;
18806;SDS011;9531;52.030;4.380;2022-08-01T07:52:43;522.05;;;264.25;;
18806;SDS011;9531;52.030;4.380;2022-08-01T07:55:11;344.70;;;143.38;;
18806;SDS011;9531;52.030;4.380;2022-08-01T07:57:38;319.58;;;100.93;;
18806;SDS011;9531;52.030;4.380;2022-08-01T08:00:06;334.17;;;151.80;;
18806;SDS011;9531;52.030;4.380;2022-08-01T08:02:36;222.18;;;85.20;;
18806;SDS011;9531;52.030;4.380;2022-08-01T08:05:03;244.85;;;91.28;;
18806;SDS011;9531;52.030;4.380;2022-08-01T08:07:32;138.50;;;38.92;;
18806;SDS011;9531;52.030;4.380;2022-08-01T08:09:59;173.75;;;46.92;;
18806;SDS011;9531;52.030;4.380;2022-08-01T08:12:27;154.43;;;27.63;;
18806;SDS011;9531;52.030;4.380;2022-08-01T08:14:54;124.07;;;35.65;;
18806;SDS011;9531;52.030;4.380;2022-08-01T08:17:21;138.35;;;39.10;;
18806;SDS011;9531;52.030;4.380;2022-08-01T08:19:50;246.23;;;71.43;;
18806;SDS011;9531;52.030;4.380;2022-08-01T08:22:17;271.45;;;59.17;;
18806;SDS011;9531;52.030;4.380;2022-08-01T08:24:45;115.68;;;27.25;;
18806;SDS011;9531;52.030;4.380;2022-08-01T08:27:12;169.63;;;34.80;;
18806;SDS011;9531;52.030;4.380;2022-08-01T08:29:40;115.30;;;27.35;;
18806;SDS011;9531;52.030;4.380;2022-08-01T08:32:07;148.98;;;29.92;;
18806;SDS011;9531;52.030;4.380;2022-08-01T08:34:35;325.55;;;51.58;;
18806;SDS011;9531;52.030;4.380;2022-08-01T08:37:04;231.60;;;44.95;;
18806;SDS011;9531;52.030;4.380;2022-08-01T08:39:32;250.68;;;58.40;;
18806;SDS011;9531;52.030;4.380;2022-08-01T08:41:59;256.85;;;62.92;;
18806;SDS011;9531;52.030;4.380;2022-08-01T08:44:28;679.33;;;147.80;;
18806;SDS011;9531;52.030;4.380;2022-08-01T08:46:55;985.08;;;184.45;;
18806;SDS011;9531;52.030;4.380;2022-08-01T08:49:26;1297.50;;;249.85;;
18806;SDS011;9531;52.030;4.380;2022-08-01T08:51:54;974.35;;;193.65;;
18806;SDS011;9531;52.030;4.380;2022-08-01T08:54:26;953.15;;;233.23;;
18806;SDS011;9531;52.030;4.380;2022-08-01T08:56:54;1229.00;;;270.05;;
18806;SDS011;9531;52.030;4.380;2022-08-01T08:59:21;1561.10;;;322.25;;
18806;SDS011;9531;52.030;4.380;2022-08-01T09:01:51;1710.20;;;351.58;;
18806;SDS011;9531;52.030;4.380;2022-08-01T09:04:19;1999.90;;;519.05;;
18806;SDS011;9531;52.030;4.380;2022-08-01T09:06:47;1956.43;;;406.65;;
18806;SDS011;9531;52.030;4.380;2022-08-01T09:09:14;1868.93;;;415.17;;
18806;SDS011;9531;52.030;4.380;2022-08-01T09:11:43;1999.90;;;557.10;;
18806;SDS011;9531;52.030;4.380;2022-08-01T09:14:11;1999.90;;;644.72;;
18806;SDS011;9531;52.030;4.380;2022-08-01T09:16:39;1999.90;;;558.25;;
18806;SDS011;9531;52.030;4.380;2022-08-01T09:19:08;1370.88;;;253.70;;
18806;SDS011;9531;52.030;4.380;2022-08-01T09:21:36;1999.90;;;592.63;;
18806;SDS011;9531;52.030;4.380;2022-08-01T09:24:04;1999.90;;;542.88;;
18806;SDS011;9531;52.030;4.380;2022-08-01T09:26:32;1999.90;;;475.63;;
18806;SDS011;9531;52.030;4.380;2022-08-01T09:29:05;1999.90;;;477.25;;
18806;SDS011;9531;52.030;4.380;2022-08-01T09:31:39;1999.90;;;437.75;;
18806;SDS011;9531;52.030;4.380;2022-08-01T09:34:07;1999.90;;;577.53;;
18806;SDS011;9531;52.030;4.380;2022-08-01T09:36:45;1999.90;;;448.95;;
18806;SDS011;9531;52.030;4.380;2022-08-01T09:39:16;1999.90;;;606.97;;
18806;SDS011;9531;52.030;4.380;2022-08-01T09:41:44;1999.90;;;544.15;;
18806;SDS011;9531;52.030;4.380;2022-08-01T09:44:13;1999.90;;;524.65;;
18806;SDS011;9531;52.030;4.380;2022-08-01T09:46:49;1999.90;;;594.85;;
18806;SDS011;9531;52.030;4.380;2022-08-01T09:49:26;1999.90;;;679.88;;
18806;SDS011;9531;52.030;4.380;2022-08-01T09:51:53;1999.90;;;675.15;;
18806;SDS011;9531;52.030;4.380;2022-08-01T09:54:27;1999.90;;;645.17;;
18806;SDS011;9531;52.030;4.380;2022-08-01T09:56:55;1999.90;;;808.35;;
18806;SDS011;9531;52.030;4.380;2022-08-01T09:59:35;1999.90;;;744.53;;
18806;SDS011;9531;52.030;4.380;2022-08-01T10:02:05;1999.90;;;856.85;;
18806;SDS011;9531;52.030;4.380;2022-08-01T10:04:32;1999.90;;;779.78;;
18806;SDS011;9531;52.030;4.380;2022-08-01T10:07:04;1999.90;;;811.25;;
18806;SDS011;9531;52.030;4.380;2022-08-01T10:09:32;1999.90;;;821.35;;
18806;SDS011;9531;52.030;4.380;2022-08-01T10:12:01;1999.90;;;798.17;;
18806;SDS011;9531;52.030;4.380;2022-08-01T10:14:28;1999.90;;;807.72;;
18806;SDS011;9531;52.030;4.380;2022-08-01T10:16:58;1999.90;;;806.55;;
18806;SDS011;9531;52.030;4.380;2022-08-01T10:19:28;1999.90;;;790.45;;
18806;SDS011;9531;52.030;4.380;2022-08-01T10:21:56;1999.90;;;777.55;;
18806;SDS011;9531;52.030;4.380;2022-08-01T10:24:24;1999.90;;;896.70;;
18806;SDS011;9531;52.030;4.380;2022-08-01T10:26:52;1999.90;;;815.10;;
18806;SDS011;9531;52.030;4.380;2022-08-01T10:29:20;1999.90;;;795.05;;
18806;SDS011;9531;52.030;4.380;2022-08-01T10:31:49;1999.90;;;797.80;;
18806;SDS011;9531;52.030;4.380;2022-08-01T10:34:18;1999.90;;;854.88;;
18806;SDS011;9531;52.030;4.380;2022-08-01T10:36:47;1999.90;;;777.78;;
18806;SDS011;9531;52.030;4.380;2022-08-01T10:39:15;1999.90;;;823.97;;
18806;SDS011;9531;52.030;4.380;2022-08-01T10:41:44;1999.90;;;836.28;;
18806;SDS011;9531;52.030;4.380;2022-08-01T10:44:11;1999.90;;;830.40;;
18806;SDS011;9531;52.030;4.380;2022-08-01T10:46:42;1999.90;;;791.92;;
18806;SDS011;9531;52.030;4.380;2022-08-01T10:49:13;1999.90;;;777.47;;
18806;SDS011;9531;52.030;4.380;2022-08-01T10:51:42;1999.90;;;828.13;;
18806;SDS011;9531;52.030;4.380;2022-08-01T10:54:10;1999.90;;;802.40;;
18806;SDS011;9531;52.030;4.380;2022-08-01T10:56:38;1999.90;;;829.60;;
18806;SDS011;9531;52.030;4.380;2022-08-01T10:59:07;1999.90;;;812.00;;
18806;SDS011;9531;52.030;4.380;2022-08-01T11:01:52;1999.90;;;706.13;;
18806;SDS011;9531;52.030;4.380;2022-08-01T11:07:20;1999.90;;;803.28;;
18806;SDS011;9531;52.030;4.380;2022-08-01T11:09:50;1999.90;;;720.50;;
18806;SDS011;9531;52.030;4.380;2022-08-01T11:12:37;1999.90;;;839.47;;
18806;SDS011;9531;52.030;4.380;2022-08-01T11:15:23;1999.90;;;808.90;;
18806;SDS011;9531;52.030;4.380;2022-08-01T11:17:51;1999.90;;;719.72;;
18806;SDS011;9531;52.030;4.380;2022-08-01T11:20:19;1999.90;;;742.08;;
18806;SDS011;9531;52.030;4.380;2022-08-01T11:28:20;1999.90;;;755.58;;
18806;SDS011;9531;52.030;4.380;2022-08-01T11:30:49;1999.90;;;713.90;;
18806;SDS011;9531;52.030;4.380;2022-08-01T11:33:17;1999.90;;;660.63;;
18806;SDS011;9531;52.030;4.380;2022-08-01T11:38:27;1999.90;;;796.78;;
18806;SDS011;9531;52.030;4.380;2022-08-01T11:41:08;1999.90;;;715.65;;
18806;SDS011;9531;52.030;4.380;2022-08-01T11:43:39;1999.90;;;728.70;;
18806;SDS011;9531;52.030;4.380;2022-08-01T11:52:02;1999.90;;;745.17;;
18806;SDS011;9531;52.030;4.380;2022-08-01T11:54:30;1999.90;;;757.88;;
18806;SDS011;9531;52.030;4.380;2022-08-01T11:56:58;1999.90;;;784.22;;
18806;SDS011;9531;52.030;4.380;2022-08-01T11:59:27;1999.90;;;749.40;;
18806;SDS011;9531;52.030;4.380;2022-08-01T12:01:54;1999.90;;;765.30;;
18806;SDS011;9531;52.030;4.380;2022-08-01T12:04:22;1999.90;;;787.92;;
18806;SDS011;9531;52.030;4.380;2022-08-01T12:06:49;1999.90;;;892.78;;
18806;SDS011;9531;52.030;4.380;2022-08-01T12:09:18;1999.90;;;749.33;;
18806;SDS011;9531;52.030;4.380;2022-08-01T12:11:46;1999.90;;;745.35;;
18806;SDS011;9531;52.030;4.380;2022-08-01T12:14:20;1999.90;;;722.35;;
18806;SDS011;9531;52.030;4.380;2022-08-01T12:16:54;1999.90;;;759.15;;
18806;SDS011;9531;52.030;4.380;2022-08-01T12:19:22;1999.90;;;732.25;;
18806;SDS011;9531;52.030;4.380;2022-08-01T12:22:09;1999.90;;;739.45;;
18806;SDS011;9531;52.030;4.380;2022-08-01T12:24:37;1999.90;;;728.50;;
18806;SDS011;9531;52.030;4.380;2022-08-01T12:27:05;1999.90;;;774.97;;
18806;SDS011;9531;52.030;4.380;2022-08-01T12:29:33;1999.90;;;877.65;;
18806;SDS011;9531;52.030;4.380;2022-08-01T12:32:04;1999.90;;;744.50;;
18806;SDS011;9531;52.030;4.380;2022-08-01T12:34:32;1999.90;;;733.13;;
18806;SDS011;9531;52.030;4.380;2022-08-01T12:37:01;1999.90;;;743.67;;
18806;SDS011;9531;52.030;4.380;2022-08-01T12:39:30;1999.90;;;767.13;;
18806;SDS011;9531;52.030;4.380;2022-08-01T12:41:57;1999.90;;;804.90;;
18806;SDS011;9531;52.030;4.380;2022-08-01T12:44:25;1999.90;;;734.30;;
18806;SDS011;9531;52.030;4.380;2022-08-01T12:46:52;1999.90;;;750.08;;
18806;SDS011;9531;52.030;4.380;2022-08-01T12:49:21;1999.90;;;757.65;;
18806;SDS011;9531;52.030;4.380;2022-08-01T12:51:49;1999.90;;;734.05;;
18806;SDS011;9531;52.030;4.380;2022-08-01T12:54:17;1999.90;;;761.30;;
18806;SDS011;9531;52.030;4.380;2022-08-01T12:56:44;1999.90;;;746.55;;
18806;SDS011;9531;52.030;4.380;2022-08-01T12:59:22;1999.90;;;704.30;;
18806;SDS011;9531;52.030;4.380;2022-08-01T13:01:50;1999.90;;;761.70;;
18806;SDS011;9531;52.030;4.380;2022-08-01T13:04:18;1999.90;;;742.25;;
18806;SDS011;9531;52.030;4.380;2022-08-01T13:06:48;1999.90;;;761.92;;
18806;SDS011;9531;52.030;4.380;2022-08-01T13:09:15;1999.90;;;797.80;;
18806;SDS011;9531;52.030;4.380;2022-08-01T13:11:43;1999.90;;;790.67;;
18806;SDS011;9531;52.030;4.380;2022-08-01T13:14:11;1999.90;;;749.83;;
18806;SDS011;9531;52.030;4.380;2022-08-01T13:16:53;1999.90;;;812.92;;
18806;SDS011;9531;52.030;4.380;2022-08-01T13:19:21;1999.90;;;646.92;;
18806;SDS011;9531;52.030;4.380;2022-08-01T13:22:09;1999.90;;;740.20;;
18806;SDS011;9531;52.030;4.380;2022-08-01T13:24:36;1999.90;;;705.90;;
18806;SDS011;9531;52.030;4.380;2022-08-01T13:27:05;1999.90;;;741.45;;
18806;SDS011;9531;52.030;4.380;2022-08-01T13:29:33;1999.90;;;782.03;;
18806;SDS011;9531;52.030;4.380;2022-08-01T13:32:12;1999.90;;;735.08;;
18806;SDS011;9531;52.030;4.380;2022-08-01T13:34:40;1999.90;;;761.17;;
18806;SDS011;9531;52.030;4.380;2022-08-01T13:37:07;1999.90;;;786.65;;
18806;SDS011;9531;52.030;4.380;2022-08-01T13:39:37;1999.90;;;698.55;;
18806;SDS011;9531;52.030;4.380;2022-08-01T13:42:10;1999.90;;;739.92;;
18806;SDS011;9531;52.030;4.380;2022-08-01T13:44:39;1999.90;;;723.72;;
18806;SDS011;9531;52.030;4.380;2022-08-01T13:47:06;1999.90;;;734.20;;
18806;SDS011;9531;52.030;4.380;2022-08-01T13:49:34;1999.90;;;750.13;;
18806;SDS011;9531;52.030;4.380;2022-08-01T13:52:01;1999.90;;;728.22;;
18806;SDS011;9531;52.030;4.380;2022-08-01T13:54:31;1999.90;;;700.03;;
18806;SDS011;9531;52.030;4.380;2022-08-01T13:56:59;1999.90;;;767.28;;
18806;SDS011;9531;52.030;4.380;2022-08-01T13:59:27;1999.90;;;752.28;;
18806;SDS011;9531;52.030;4.380;2022-08-01T14:01:55;1999.90;;;746.53;;
18806;SDS011;9531;52.030;4.380;2022-08-01T14:04:22;1999.90;;;873.90;;
18806;SDS011;9531;52.030;4.380;2022-08-01T14:06:49;1999.90;;;755.17;;
18806;SDS011;9531;52.030;4.380;2022-08-01T14:09:17;1999.90;;;731.92;;
18806;SDS011;9531;52.030;4.380;2022-08-01T14:11:44;1999.90;;;715.10;;
18806;SDS011;9531;52.030;4.380;2022-08-01T14:14:13;1999.90;;;731.97;;
18806;SDS011;9531;52.030;4.380;2022-08-01T14:16:41;1999.90;;;689.28;;
18806;SDS011;9531;52.030;4.380;2022-08-01T14:19:09;1999.90;;;713.08;;
18806;SDS011;9531;52.030;4.380;2022-08-01T14:21:37;1999.90;;;692.83;;
18806;SDS011;9531;52.030;4.380;2022-08-01T14:24:04;1999.90;;;712.67;;
18806;SDS011;9531;52.030;4.380;2022-08-01T14:26:32;1999.90;;;748.28;;
18806;SDS011;9531;52.030;4.380;2022-08-01T14:28:59;1999.90;;;708.50;;
18806;SDS011;9531;52.030;4.380;2022-08-01T14:31:28;1999.90;;;699.40;;
18806;SDS011;9531;52.030;4.380;2022-08-01T14:33:55;1999.90;;;756.67;;